Morgan, UT (84050)

7:02 PM MDT on September 01, 2015 (GMT -0600)
Morgan | | Change Station
CLOSE
Current Station
Personal Weather Station
Location: Morgan, UT
Elevation: 5059 ft
Nearby Weather Stations

Elev 5059 ft 41.03 °N, 111.70 °W | Updated 16 seconds ago

Clear
Clear
82.0 °F
Feels Like 81 °F
N
0.0
Wind Variable Wind from West
Gusts 6.0 mph

Today
High -- | Low -- °F
--% Chance of Precip.
Yesterday
High -- | Low -- °F
Precip. -- in
6:53 AM 7:59 PM
Waning Gibbous, 85% visible
Pressure 29.75 in
Visibility 10.0 miles
Clouds Clear
Heat Index 81 °F
Dew Point 52 °F
Humidity 35%
Rainfall 0.02 in
Snow Depth Not available.
UV 1 out of 12
Pollen 8.90 out of 12
Air Quality Not available.
Flu Activity Not available.
METAR KHIF 020058Z AUTO 36002KT 10SM CLR 30/07 A2993 RMK AO2 SLP073 T02990073
Pressure 29.75 in
Visibility 10.0 miles
Clouds Clear
Heat Index 81 °F
Dew Point 52 °F
Humidity 35%
Rainfall 0.02 in
Snow Depth Not available.
UV 1 out of 12
Pollen 8.90 out of 12
Air Quality Not available.
Flu Activity Not available.
METAR KHIF 020058Z AUTO 36002KT 10SM CLR 30/07 A2993 RMK AO2 SLP073 T02990073

10-Day Weather Forecast

×

Almanac

Astronomy

Sep. 01, 2015 Rise Set
Actual Time
Civil Twilight
Nautical Twilight
Astronomical Twilight
Moon
Length of Visible Light
Length of Day
Tomorrow will be .
, % of the Moon is Illuminated

Today's Extremes

State Highs State Lows

Community

WunderPhotos

Upload Photos

1,851,663 photos uploaded!

WunderBlogs® & News

Nearby

Air Quality

  Air Quality AQ Index Pollutant
Not available.

Snow Depth

Station Depth Elevation

Earthquake Activity

City Distance Mag. Time & Date
Minimum magnitude displayed is 2.5.

Coastal Water Temperatures

Place Temperature

Stations

Nearby Weather Stations

Station Location Temp. Windchill Dew Point Humidity Wind Precip. Elev Updated Type